Time;durP1;ratioP1;P1;durP2;ratioP2;P2;SDS_P1;SDS_P2;PMS_P1;PMS_P2;Temp;Humidity;BMP_temperature;BMP_pressure;BME280_temperature;BME280_humidity;BME280_pressure;Samples;Min_cycle;Max_cycle;Signal;HPM_P1;HPM_P2
2022/08/17 00:00:36;;;;;;;;;25.00;23.33;;;;;20.95;72.26;100426.00;4996079;28;45538;-64
2022/08/17 00:03:25;;;;;;;;;29.33;23.33;;;;;20.95;72.27;100419.78;4978618;28;45375;-66
2022/08/17 00:06:00;;;;;;;;;25.00;21.33;;;;;20.98;71.93;100418.81;4977097;28;45393;-66
2022/08/17 00:08:31;;;;;;;;;26.00;23.33;;;;;20.96;71.89;100409.06;4994703;28;46214;-65
2022/08/17 00:10:57;;;;;;;;;26.00;22.33;;;;;21.02;71.50;100396.41;4994554;28;45509;-66
2022/08/17 00:13:29;;;;;;;;;25.33;20.67;;;;;21.07;71.47;100402.38;4994601;28;45376;-66
2022/08/17 00:15:58;;;;;;;;;26.67;24.00;;;;;21.12;71.70;100401.25;4997968;28;45524;-65
2022/08/17 00:18:30;;;;;;;;;31.67;29.33;;;;;21.00;71.31;100396.50;4993967;28;45521;-65
2022/08/17 00:20:58;;;;;;;;;39.00;31.67;;;;;20.86;71.36;100362.53;4993925;28;45450;-66
2022/08/17 00:23:23;;;;;;;;;35.50;27.50;;;;;20.94;71.47;100376.34;4994568;28;45519;-65
2022/08/17 00:25:50;;;;;;;;;35.33;30.67;;;;;21.15;71.15;100410.88;4978877;28;45548;-64
2022/08/17 00:28:16;;;;;;;;;34.33;26.33;;;;;21.12;71.83;100401.25;4995180;28;45667;-65
2022/08/17 00:30:47;;;;;;;;;29.67;20.33;;;;;21.07;72.24;100387.28;4975971;28;45708;-64
2022/08/17 00:33:19;;;;;;;;;20.67;16.67;;;;;21.08;72.31;100396.13;4994563;28;45420;-66
2022/08/17 00:35:46;;;;;;;;;20.67;17.67;;;;;21.05;72.12;100382.97;4994859;28;45464;-71
2022/08/17 00:38:13;;;;;;;;;18.00;18.00;;;;;21.12;71.72;100392.41;4994222;28;45445;-70
2022/08/17 00:40:42;;;;;;;;;19.67;19.67;;;;;21.09;71.60;100388.06;4978916;28;45240;-66
2022/08/17 00:43:15;;;;;;;;;20.67;16.67;;;;;21.05;71.41;100397.16;4995197;28;45448;-66
2022/08/17 00:45:41;;;;;;;;;17.67;17.67;;;;;21.00;71.78;100392.94;4994319;28;45834;-68
2022/08/17 00:48:07;;;;;;;;;14.67;14.67;;;;;20.95;71.69;100377.19;4995110;28;45660;-67
2022/08/17 00:50:34;;;;;;;;;21.33;17.67;;;;;20.99;71.43;100384.09;4994901;28;45507;-67
2022/08/17 00:53:01;;;;;;;;;17.00;14.33;;;;;20.84;71.69;100359.06;4992515;28;45487;-68
2022/08/17 00:55:27;;;;;;;;;21.67;16.33;;;;;20.94;72.07;100384.31;4994448;28;45397;-67
2022/08/17 00:57:57;;;;;;;;;17.67;17.67;;;;;20.97;71.76;100385.97;4993619;28;45715;-71
2022/08/17 01:00:27;;;;;;;;;16.67;14.33;;;;;21.02;71.38;100389.28;4993375;28;45305;-65
2022/08/17 01:03:05;;;;;;;;;21.00;17.33;;;;;20.98;71.75;100395.72;4993800;28;45429;-67
2022/08/17 01:05:33;;;;;;;;;21.67;17.33;;;;;20.95;71.63;100385.19;4992968;28;45625;-66
2022/08/17 01:08:01;;;;;;;;;15.00;13.00;;;;;20.83;72.31;100372.44;4993530;28;45930;-69
2022/08/17 01:10:38;;;;;;;;;20.67;15.67;;;;;20.99;71.83;100399.22;4995250;28;45510;-65
2022/08/17 01:13:05;;;;;;;;;18.33;16.67;;;;;20.97;72.30;100380.66;4993746;28;45506;-67
2022/08/17 01:15:35;;;;;;;;;16.33;16.33;;;;;20.98;72.15;100385.06;4980931;28;45552;-73
2022/08/17 01:18:01;;;;;;;;;21.67;17.33;;;;;21.02;72.10;100391.94;4976186;28;47029;-67
2022/08/17 01:20:27;;;;;;;;;19.67;17.33;;;;;20.86;72.05;100361.69;4993143;28;45416;-67
2022/08/17 01:22:53;;;;;;;;;21.00;17.33;;;;;21.03;72.03;100390.16;4996499;28;45778;-65
2022/08/17 01:25:20;;;;;;;;;20.67;17.33;;;;;21.05;71.69;100397.16;4994232;28;45421;-66
2022/08/17 01:27:47;;;;;;;;;25.33;20.00;;;;;21.03;71.46;100387.50;4993782;28;46263;-67
2022/08/17 01:30:13;;;;;;;;;20.67;19.67;;;;;20.98;72.34;100393.03;4993216;28;45551;-68
2022/08/17 01:32:39;;;;;;;;;17.67;15.33;;;;;20.85;71.99;100378.56;4993465;28;45384;-69
2022/08/17 01:35:05;;;;;;;;;19.67;15.00;;;;;20.99;72.14;100402.75;4993847;28;45703;-69
2022/08/17 01:37:35;;;;;;;;;19.67;17.00;;;;;20.95;72.08;100391.38;4992727;28;45654;-66
2022/08/17 01:40:21;;;;;;;;;22.33;18.00;;;;;20.93;71.95;100395.91;4984951;28;45495;-65
2022/08/17 01:42:52;;;;;;;;;20.33;16.33;;;;;20.95;72.01;100399.38;4993481;28;45353;-65
2022/08/17 01:45:23;;;;;;;;;16.33;15.33;;;;;20.92;72.38;100404.81;4994054;28;45769;-67
2022/08/17 01:47:50;;;;;;;;;18.33;16.67;;;;;20.85;72.28;100394.53;4993045;28;46646;-64
2022/08/17 01:50:25;;;;;;;;;18.33;15.33;;;;;20.85;72.38;100399.84;4993399;28;45776;-68
2022/08/17 01:52:57;;;;;;;;;22.00;18.00;;;;;20.84;72.52;100398.16;4975451;28;45436;-66
2022/08/17 01:55:30;;;;;;;;;19.67;18.33;;;;;20.50;72.62;100360.59;4993551;28;45502;-66
2022/08/17 01:57:57;;;;;;;;;16.67;14.67;;;;;20.65;73.42;100395.47;4993080;28;45388;-66
2022/08/17 02:00:23;;;;;;;;;16.67;13.67;;;;;20.64;73.05;100399.88;4993139;28;45373;-66
2022/08/17 02:02:48;;;;;;;;;15.33;12.00;;;;;20.61;73.55;100402.69;4993402;28;45537;-64
2022/08/17 02:05:14;;;;;;;;;22.33;16.67;;;;;20.58;73.64;100399.31;4993599;28;45483;-66
2022/08/17 02:07:41;;;;;;;;;18.00;16.00;;;;;20.58;73.62;100413.50;4993124;28;46072;-65
2022/08/17 02:10:08;;;;;;;;;21.67;17.00;;;;;20.57;73.86;100414.41;4992810;28;45428;-64
2022/08/17 02:12:36;;;;;;;;;18.00;12.67;;;;;20.56;73.30;100417.16;4995618;28;45397;-69
2022/08/17 02:15:08;;;;;;;;;15.67;14.67;;;;;20.62;73.40;100416.84;4999638;28;45622;-66
2022/08/17 02:17:34;;;;;;;;;16.00;14.00;;;;;20.54;73.71;100414.50;4996115;28;46256;-65
2022/08/17 02:20:00;;;;;;;;;18.00;12.67;;;;;20.46;73.51;100404.22;4996055;28;45471;-64
2022/08/17 02:22:26;;;;;;;;;14.00;13.00;;;;;20.57;73.67;100413.53;4996334;28;45471;-65
2022/08/17 02:24:53;;;;;;;;;15.33;13.67;;;;;20.48;73.52;100388.19;4999217;28;45529;-65
2022/08/17 02:27:19;;;;;;;;;16.67;15.33;;;;;20.57;73.49;100402.91;4996572;28;45497;-65
2022/08/17 02:29:45;;;;;;;;;12.33;12.33;;;;;20.52;73.39;100393.31;4996465;28;45491;-65
2022/08/17 02:32:22;;;;;;;;;17.33;13.33;;;;;20.58;73.56;100402.84;4996512;28;45417;-65
2022/08/17 02:34:48;;;;;;;;;14.67;14.67;;;;;20.63;73.29;100407.97;4997868;28;45583;-67
2022/08/17 02:37:16;;;;;;;;;13.67;13.67;;;;;20.59;73.21;100403.69;5000042;28;45213;-63
2022/08/17 02:39:43;;;;;;;;;17.00;15.00;;;;;20.17;72.87;100331.06;5000282;28;45399;-64
2022/08/17 02:42:09;;;;;;;;;14.00;14.00;;;;;20.59;73.40;100407.22;4995658;28;45743;-65
2022/08/17 02:44:34;;;;;;;;;20.33;16.00;;;;;20.66;72.80;100414.00;4995879;28;45690;-65
2022/08/17 02:47:00;;;;;;;;;16.33;13.33;;;;;20.46;73.11;100398.03;4995314;28;46419;-65
2022/08/17 02:49:25;;;;;;;;;13.33;13.33;;;;;20.59;72.96;100411.69;4995437;28;45349;-65
2022/08/17 02:51:51;;;;;;;;;17.00;11.67;;;;;20.73;72.88;100427.88;4995960;28;45513;-65
2022/08/17 02:54:16;;;;;;;;;14.67;13.33;;;;;20.67;72.96;100407.75;4996393;28;45539;-65
2022/08/17 02:56:42;;;;;;;;;14.67;12.33;;;;;20.78;72.93;100417.03;4999241;28;45556;-66
2022/08/17 02:59:08;;;;;;;;;12.00;11.00;;;;;20.83;73.03;100410.56;4999871;28;45509;-64
2022/08/17 03:01:33;;;;;;;;;13.00;12.67;;;;;20.83;72.21;100404.38;4998593;28;45471;-66
2022/08/17 03:03:59;;;;;;;;;13.67;12.00;;;;;20.84;72.38;100400.81;4995505;28;45362;-66
2022/08/17 03:06:27;;;;;;;;;15.00;14.33;;;;;20.76;72.27;100377.19;4995164;28;46008;-66
2022/08/17 03:08:53;;;;;;;;;19.67;13.33;;;;;20.80;72.34;100399.22;4995386;28;45356;-65
2022/08/17 03:11:19;;;;;;;;;15.33;14.67;;;;;20.72;72.19;100388.91;4999272;28;45417;-66
2022/08/17 03:13:44;;;;;;;;;16.67;15.67;;;;;20.60;72.00;100371.72;5003969;28;45524;-65
2022/08/17 03:16:10;;;;;;;;;18.33;18.33;;;;;20.53;72.41;100371.09;4999706;28;45348;-66
2022/08/17 03:18:35;;;;;;;;;16.67;15.67;;;;;20.62;72.34;100398.22;4999604;28;45451;-65
2022/08/17 03:21:03;;;;;;;;;20.33;19.67;;;;;20.53;72.18;100388.84;4996759;28;45663;-66
2022/08/17 03:23:29;;;;;;;;;15.67;15.67;;;;;20.56;72.61;100391.41;4995109;28;45771;-66
2022/08/17 03:25:55;;;;;;;;;15.67;12.33;;;;;20.59;72.67;100391.25;4994825;28;46219;-67
2022/08/17 03:28:22;;;;;;;;;18.33;16.33;;;;;20.56;72.00;100366.59;4995164;28;45486;-66
2022/08/17 03:30:49;;;;;;;;;13.33;12.67;;;;;20.64;71.95;100369.75;4996533;28;45312;-66
2022/08/17 03:33:15;;;;;;;;;16.00;14.00;;;;;20.72;72.26;100373.81;4995899;28;45456;-66
2022/08/17 03:35:41;;;;;;;;;20.33;15.67;;;;;20.66;72.07;100352.78;4995321;28;46004;-68
2022/08/17 03:38:09;;;;;;;;;17.33;17.33;;;;;20.64;72.23;100362.63;4995179;28;45715;-68
2022/08/17 03:40:39;;;;;;;;;16.33;15.67;;;;;20.52;72.03;100357.84;4999478;28;45540;-73
2022/08/17 03:43:07;;;;;;;;;17.33;15.67;;;;;20.61;71.91;100365.44;4981656;28;45587;-68
2022/08/17 03:56:42;;;;;;;;;17.33;17.33;;;;;20.55;72.21;100384.34;4996017;28;45785;-71
2022/08/17 03:59:09;;;;;;;;;22.67;17.33;;;;;20.49;72.58;100389.91;4993976;28;45395;-65
2022/08/17 04:01:34;;;;;;;;;16.33;16.33;;;;;20.53;72.10;100402.16;4994439;28;45583;-68
2022/08/17 04:04:00;;;;;;;;;22.33;14.33;;;;;20.57;72.18;100406.41;4995143;28;45591;-66
2022/08/17 04:06:25;;;;;;;;;18.33;17.00;;;;;20.59;72.11;100404.56;4996443;28;45828;-69
2022/08/17 04:08:51;;;;;;;;;15.00;14.33;;;;;20.62;72.00;100401.78;4999052;28;45520;-67
2022/08/17 04:11:17;;;;;;;;;13.67;13.67;;;;;20.68;71.93;100412.13;4996047;28;45478;-72
2022/08/17 04:13:42;;;;;;;;;16.00;15.00;;;;;20.68;71.50;100401.50;4994568;28;45317;-68
2022/08/17 04:16:08;;;;;;;;;15.67;12.00;;;;;20.80;71.66;100413.38;4995594;28;45668;-69
2022/08/17 04:18:33;;;;;;;;;14.67;14.67;;;;;20.83;72.13;100412.38;4998879;28;45302;-71
2022/08/17 04:20:59;;;;;;;;;19.67;16.00;;;;;20.80;71.64;100416.03;4999074;28;45409;-69
2022/08/17 04:23:31;;;;;;;;;15.67;15.33;;;;;20.75;71.79;100412.72;4996449;28;45293;-66
2022/08/17 04:25:57;;;;;;;;;19.00;17.33;;;;;20.83;71.45;100420.34;4994752;28;46223;-66
2022/08/17 04:28:22;;;;;;;;;21.00;17.00;;;;;20.85;71.69;100431.78;4994050;28;45325;-67
2022/08/17 04:30:48;;;;;;;;;18.00;18.00;;;;;20.78;70.93;100417.91;4994902;28;45665;-65
2022/08/17 04:33:20;;;;;;;;;19.67;19.33;;;;;20.85;70.66;100419.34;4994265;28;45440;-65
2022/08/17 04:35:51;;;;;;;;;19.33;18.00;;;;;20.78;70.81;100417.03;4996067;28;46109;-66
2022/08/17 04:38:20;;;;;;;;;22.33;19.67;;;;;20.75;70.62;100418.91;4995389;28;45419;-67
2022/08/17 04:43:31;;;;;;;;;23.33;19.67;;;;;20.74;71.13;100417.19;4994060;28;45520;-67
2022/08/17 04:46:00;;;;;;;;;19.67;17.67;;;;;20.76;71.38;100422.41;4993968;28;45497;-66
2022/08/17 04:48:33;;;;;;;;;13.33;12.33;;;;;20.71;71.37;100425.28;4976072;28;45610;-64
2022/08/17 04:50:59;;;;;;;;;17.33;17.33;;;;;20.70;71.34;100415.59;4980220;28;45473;-66
2022/08/17 04:53:26;;;;;;;;;18.67;17.00;;;;;20.66;71.46;100403.34;4993907;28;45534;-66
2022/08/17 04:55:53;;;;;;;;;19.33;16.33;;;;;20.71;71.53;100392.50;4975573;28;46566;-67
2022/08/17 04:58:20;;;;;;;;;18.33;16.00;;;;;20.67;71.11;100389.13;4993990;28;45503;-64
2022/08/17 05:00:45;;;;;;;;;19.00;15.67;;;;;20.54;71.40;100356.84;4978653;28;45584;-66
2022/08/17 05:03:21;;;;;;;;;20.33;18.67;;;;;20.60;71.54;100377.03;4995487;28;45568;-65
2022/08/17 05:05:48;;;;;;;;;17.33;17.33;;;;;20.63;70.89;100368.06;4975749;28;47473;-64
2022/08/17 05:08:16;;;;;;;;;18.00;18.00;;;;;20.77;71.21;100394.91;4993923;28;45530;-65
2022/08/17 05:10:42;;;;;;;;;20.33;20.33;;;;;20.65;71.07;100372.38;4994033;28;46501;-65
2022/08/17 05:13:15;;;;;;;;;23.67;21.67;;;;;20.73;71.01;100385.31;4994174;28;45503;-67
2022/08/17 05:15:42;;;;;;;;;20.00;19.67;;;;;20.63;70.87;100387.53;4993620;28;45274;-67
2022/08/17 05:18:09;;;;;;;;;24.67;23.00;;;;;20.65;71.18;100400.78;4993704;28;45448;-65
2022/08/17 05:20:36;;;;;;;;;19.33;18.67;;;;;20.76;70.99;100409.13;4993463;28;45480;-65
2022/08/17 05:23:06;;;;;;;;;22.33;22.00;;;;;20.74;70.99;100409.22;4988533;28;45639;-69
2022/08/17 05:25:36;;;;;;;;;27.00;20.67;;;;;20.71;71.25;100400.47;4989038;28;46336;-66
2022/08/17 05:28:04;;;;;;;;;26.67;23.33;;;;;20.63;72.01;100392.84;4993441;28;45471;-67
2022/08/17 05:30:29;;;;;;;;;22.00;19.00;;;;;20.68;71.81;100390.84;4996419;28;45416;-67
2022/08/17 05:33:10;;;;;;;;;20.67;19.00;;;;;20.60;71.62;100384.16;4993812;28;45290;-66
2022/08/17 05:35:42;;;;;;;;;24.67;24.00;;;;;20.53;72.02;100372.91;4993009;28;46177;-66
2022/08/17 05:38:09;;;;;;;;;23.00;20.67;;;;;20.67;71.96;100385.63;4992871;28;45431;-66
2022/08/17 05:40:35;;;;;;;;;23.00;23.00;;;;;20.66;71.72;100374.06;4987806;28;45374;-66
2022/08/17 05:43:04;;;;;;;;;26.33;23.33;;;;;20.70;71.43;100372.16;4992811;28;45695;-67
2022/08/17 05:45:31;;;;;;;;;22.00;20.67;;;;;20.91;71.10;100388.94;4993530;28;45709;-67
2022/08/17 05:47:57;;;;;;;;;23.33;21.33;;;;;21.00;71.02;100376.97;4996316;28;45416;-67
2022/08/17 05:50:30;;;;;;;;;23.33;21.67;;;;;21.07;70.66;100376.63;4997722;28;45563;-67
2022/08/17 05:53:13;;;;;;;;;23.67;21.67;;;;;21.17;70.55;100377.06;5000598;28;45560;-68
2022/08/17 05:55:54;;;;;;;;;19.67;17.67;;;;;21.22;70.42;100377.69;4982045;28;46213;-65
2022/08/17 05:58:31;;;;;;;;;19.33;18.00;;;;;21.37;69.60;100371.63;4992379;28;45482;-66
2022/08/17 06:01:07;;;;;;;;;20.33;18.00;;;;;21.43;68.88;100359.84;4998628;28;45703;-67
2022/08/17 06:03:57;;;;;;;;;21.67;20.33;;;;;21.50;68.56;100355.09;4989549;28;45313;-65
2022/08/17 06:06:39;;;;;;;;;21.33;20.67;;;;;21.76;68.08;100383.97;4996027;28;45424;-66
2022/08/17 06:09:28;;;;;;;;;19.67;18.33;;;;;21.84;67.44;100378.25;4995671;28;45494;-66
2022/08/17 06:12:03;;;;;;;;;21.00;19.33;;;;;21.84;67.63;100377.38;4998918;28;45352;-70
2022/08/17 06:14:43;;;;;;;;;16.00;14.67;;;;;21.72;67.86;100373.53;4991391;28;45527;-71
2022/08/17 06:17:20;;;;;;;;;22.33;20.00;;;;;21.72;68.17;100368.19;4989491;28;46197;-69
2022/08/17 06:19:59;;;;;;;;;23.00;20.33;;;;;21.71;68.06;100378.00;4995886;28;45435;-70
2022/08/17 06:22:34;;;;;;;;;23.33;22.00;;;;;21.66;68.25;100408.47;4996312;28;45548;-67
2022/08/17 06:25:04;;;;;;;;;19.67;18.33;;;;;21.53;68.58;100406.41;4996702;28;45329;-71
2022/08/17 06:27:35;;;;;;;;;19.33;17.67;;;;;21.44;68.72;100404.19;4996220;28;46840;-70
2022/08/17 06:30:19;;;;;;;;;21.00;20.00;;;;;21.49;68.79;100428.81;4995416;28;45674;-72
2022/08/17 06:32:50;;;;;;;;;24.33;24.33;;;;;21.41;68.77;100449.63;4996809;28;45498;-67
2022/08/17 06:36:01;;;;;;;;;23.33;19.67;;;;;21.27;69.33;100444.06;4995969;28;45550;-66
2022/08/17 06:38:42;;;;;;;;;27.00;26.33;;;;;21.20;69.97;100453.28;4977764;28;47502;-65
2022/08/17 06:41:15;;;;;;;;;21.33;21.33;;;;;21.21;69.61;100450.53;4996043;28;45496;-68
2022/08/17 06:43:58;;;;;;;;;29.33;28.00;;;;;21.06;69.83;100432.63;4996055;28;46090;-66
2022/08/17 06:46:40;;;;;;;;;35.67;28.67;;;;;20.91;70.14;100424.41;4995224;28;45348;-66
2022/08/17 06:49:18;;;;;;;;;29.67;27.33;;;;;20.93;70.58;100451.81;4990976;28;46104;-65
2022/08/17 06:52:13;;;;;;;;;32.00;27.33;;;;;20.86;70.51;100446.84;4996524;28;45372;-65
2022/08/17 06:55:08;;;;;;;;;26.67;22.33;;;;;20.83;70.42;100434.53;4960310;28;45358;-68
2022/08/17 06:57:44;;;;;;;;;25.33;23.33;;;;;20.89;70.61;100446.72;4995340;28;45606;-73
2022/08/17 07:00:21;;;;;;;;;22.33;20.00;;;;;20.94;70.71;100447.34;4998989;28;46593;-69
2022/08/17 07:02:54;;;;;;;;;19.67;19.67;;;;;20.98;70.26;100440.09;4999291;28;45506;-65
2022/08/17 07:05:25;;;;;;;;;28.33;26.33;;;;;20.93;70.10;100450.97;4995821;28;45322;-66
2022/08/17 07:08:08;;;;;;;;;24.67;23.00;;;;;20.79;70.69;100453.38;4995681;28;45276;-70
2022/08/17 07:10:56;;;;;;;;;27.00;25.00;;;;;20.71;71.01;100443.06;4978000;28;47850;-66
2022/08/17 07:13:25;;;;;;;;;25.67;24.33;;;;;20.77;71.07;100463.22;4995069;28;45468;-71
2022/08/17 07:15:58;;;;;;;;;27.33;23.67;;;;;20.79;71.25;100467.56;4997397;28;45479;-66
2022/08/17 07:18:31;;;;;;;;;26.33;24.33;;;;;20.72;71.16;100464.28;4999789;28;45339;-70
2022/08/17 07:21:07;;;;;;;;;21.00;21.00;;;;;20.78;71.69;100472.94;4995571;28;46291;-65
2022/08/17 07:24:00;;;;;;;;;24.67;21.00;;;;;20.75;71.65;100477.47;4995448;28;45454;-66
2022/08/17 07:26:26;;;;;;;;;20.67;20.00;;;;;20.77;71.13;100482.72;4973671;28;45545;-67
2022/08/17 07:28:55;;;;;;;;;26.00;23.33;;;;;20.71;71.41;100483.84;4996763;28;45615;-68
2022/08/17 07:31:23;;;;;;;;;26.67;23.33;;;;;20.79;71.23;100511.94;4994958;28;47102;-67
2022/08/17 07:34:05;;;;;;;;;25.67;24.33;;;;;20.71;71.52;100506.94;4994553;28;45437;-67
2022/08/17 07:36:32;;;;;;;;;23.33;20.33;;;;;20.67;71.46;100516.84;4988412;28;46066;-66
2022/08/17 07:39:00;;;;;;;;;25.67;23.33;;;;;20.59;71.61;100515.44;4994606;28;45456;-66
2022/08/17 07:41:27;;;;;;;;;23.33;21.67;;;;;20.64;71.90;100530.28;4976936;28;46753;-65
2022/08/17 07:43:54;;;;;;;;;29.00;22.33;;;;;20.50;72.14;100509.56;4995256;28;45369;-68
2022/08/17 07:49:12;;;;;;;;;24.67;20.33;;;;;20.77;71.47;100530.63;4995142;28;45432;-64
2022/08/17 07:51:46;;;;;;;;;19.33;19.33;;;;;20.83;71.69;100522.34;4976910;28;46768;-66
2022/08/17 07:54:15;;;;;;;;;22.67;21.00;;;;;20.88;71.43;100530.13;4976919;28;45582;-66
2022/08/17 07:56:55;;;;;;;;;25.00;22.67;;;;;20.86;71.41;100542.69;4994307;28;45769;-65
2022/08/17 07:59:24;;;;;;;;;29.33;24.67;;;;;20.74;71.57;100539.63;4994922;28;45559;-67
2022/08/17 08:01:56;;;;;;;;;20.00;18.00;;;;;20.38;71.96;100502.09;4976844;28;47963;-66
2022/08/17 08:04:44;;;;;;;;;24.00;20.67;;;;;20.60;72.47;100541.16;4996534;28;45518;-65
2022/08/17 08:07:38;;;;;;;;;27.00;24.33;;;;;20.32;72.30;100505.88;4998471;28;45525;-66
2022/08/17 08:10:14;;;;;;;;;23.00;20.33;;;;;20.56;72.71;100551.03;4992509;28;45495;-65
2022/08/17 08:13:06;;;;;;;;;24.00;21.67;;;;;20.61;72.51;100542.88;4994570;28;45760;-66
2022/08/17 08:15:42;;;;;;;;;22.33;21.00;;;;;20.58;72.29;100549.19;5005559;28;45814;-68
2022/08/17 08:18:36;;;;;;;;;22.00;22.00;;;;;20.43;72.30;100539.13;4997935;28;45449;-64
2022/08/17 08:21:09;;;;;;;;;21.00;21.00;;;;;20.56;72.33;100563.47;4986537;28;45471;-66
2022/08/17 08:23:59;;;;;;;;;24.00;24.00;;;;;20.43;72.16;100545.34;4999195;28;46282;-65
2022/08/17 08:26:49;;;;;;;;;24.67;21.67;;;;;20.50;72.35;100568.09;4995981;28;45432;-65
2022/08/17 08:29:28;;;;;;;;;21.00;19.33;;;;;20.57;72.46;100570.53;4988643;28;45476;-67
2022/08/17 08:32:08;;;;;;;;;16.33;16.33;;;;;20.66;72.03;100563.00;4999745;28;46061;-65
2022/08/17 08:35:05;;;;;;;;;20.33;18.00;;;;;20.79;71.65;100557.19;4991101;28;46240;-66
2022/08/17 08:37:46;;;;;;;;;18.67;16.67;;;;;20.94;70.85;100548.53;4977038;28;45633;-65
2022/08/17 08:40:17;;;;;;;;;17.67;16.00;;;;;21.00;70.90;100542.03;4999577;28;45412;-65
2022/08/17 08:43:07;;;;;;;;;17.00;15.00;;;;;21.05;71.14;100553.38;4999222;28;45452;-65
2022/08/17 08:45:47;;;;;;;;;24.33;20.00;;;;;20.91;71.16;100544.19;4982438;28;47772;-65
2022/08/17 08:48:24;;;;;;;;;24.00;23.00;;;;;20.92;71.53;100539.72;5006499;28;45356;-65
2022/08/17 08:51:09;;;;;;;;;18.33;18.00;;;;;20.99;71.84;100551.84;4997440;28;45603;-65
2022/08/17 08:54:02;;;;;;;;;18.33;17.67;;;;;21.04;71.51;100535.66;5003936;28;45341;-65
2022/08/17 08:56:52;;;;;;;;;22.00;19.67;;;;;20.99;71.32;100543.84;4992913;28;46365;-65
2022/08/17 08:59:49;;;;;;;;;21.33;19.33;;;;;21.10;71.23;100564.69;4981955;28;45927;-65
2022/08/17 09:02:32;;;;;;;;;22.33;21.00;;;;;21.08;71.18;100558.56;4995915;28;45358;-64
2022/08/17 09:05:30;;;;;;;;;22.67;20.33;;;;;21.04;71.36;100559.63;4993398;28;45567;-67
2022/08/17 09:08:07;;;;;;;;;21.33;19.00;;;;;21.08;71.25;100556.75;4973918;28;46162;-64
2022/08/17 09:10:50;;;;;;;;;21.00;18.00;;;;;21.04;71.55;100541.00;4997864;28;45475;-67
2022/08/17 09:13:27;;;;;;;;;23.33;21.00;;;;;20.96;70.69;100536.00;4995439;28;45378;-66
2022/08/17 09:15:59;;;;;;;;;19.33;17.67;;;;;21.01;71.03;100538.47;4993825;28;45488;-67
2022/08/17 09:18:32;;;;;;;;;20.00;17.67;;;;;20.93;70.83;100512.19;4996678;28;46342;-68
2022/08/17 09:21:27;;;;;;;;;19.67;17.00;;;;;21.18;70.63;100543.91;4993970;28;45470;-68
2022/08/17 09:24:11;;;;;;;;;19.67;17.33;;;;;21.14;70.51;100548.50;4997063;28;45391;-67
2022/08/17 09:26:47;;;;;;;;;16.00;16.00;;;;;21.24;70.79;100548.09;4993685;28;45459;-69
2022/08/17 09:29:15;;;;;;;;;23.00;21.67;;;;;21.33;69.96;100545.88;4993570;28;46277;-68
2022/08/17 09:31:51;;;;;;;;;20.00;17.33;;;;;21.33;69.99;100547.66;4995533;28;45483;-68
2022/08/17 09:34:25;;;;;;;;;23.67;21.00;;;;;21.29;69.08;100525.63;4994793;28;45582;-70
2022/08/17 09:37:09;;;;;;;;;18.33;17.67;;;;;21.43;69.25;100541.03;4993689;28;45338;-67
2022/08/17 09:39:44;;;;;;;;;18.00;17.00;;;;;21.53;68.85;100536.13;4993157;28;45957;-72
2022/08/17 09:42:21;;;;;;;;;15.33;15.33;;;;;21.74;68.90;100555.56;4993006;28;45420;-67
2022/08/17 09:44:53;;;;;;;;;20.33;19.33;;;;;21.74;68.55;100563.56;4993992;28;45463;-68
2022/08/17 09:47:31;;;;;;;;;22.00;21.33;;;;;21.62;68.53;100565.00;4985512;28;45528;-68
2022/08/17 09:50:10;;;;;;;;;24.33;24.33;;;;;21.57;68.05;100575.88;4994264;28;45430;-67
2022/08/17 09:52:36;;;;;;;;;25.00;22.67;;;;;21.55;67.99;100575.09;4994576;28;45468;-68
2022/08/17 09:55:04;;;;;;;;;22.00;20.33;;;;;21.51;68.16;100576.16;4993499;28;45796;-66
2022/08/17 09:57:54;;;;;;;;;24.67;22.33;;;;;21.52;68.15;100577.91;4992604;28;45760;-67
2022/08/17 10:00:27;;;;;;;;;25.33;23.33;;;;;21.46;68.87;100590.63;4989305;28;46071;-67
2022/08/17 10:03:19;;;;;;;;;28.67;26.33;;;;;21.45;68.74;100595.09;4994128;28;45689;-68
2022/08/17 10:05:55;;;;;;;;;29.33;27.00;;;;;21.32;69.08;100581.44;4993441;28;45390;-68
2022/08/17 10:09:02;;;;;;;;;31.33;25.33;;;;;21.35;69.34;100591.06;4993823;28;45516;-66
2022/08/17 10:14:55;;;;;;;;;27.00;27.00;;;;;21.29;69.88;100586.03;4986923;28;45440;-66
2022/08/17 10:17:52;;;;;;;;;25.00;24.00;;;;;21.19;69.78;100580.25;4977240;28;45290;-66
2022/08/17 10:20:22;;;;;;;;;31.33;24.33;;;;;21.25;70.46;100592.44;4988304;28;45834;-66
2022/08/17 10:28:39;;;;;;;;;30.33;28.33;;;;;21.05;70.77;100586.19;4993676;28;45337;-66
2022/08/17 10:31:08;;;;;;;;;30.00;26.67;;;;;21.05;70.51;100583.53;4992823;28;45506;-66
2022/08/17 10:33:53;;;;;;;;;27.67;25.67;;;;;21.12;70.64;100574.34;4995185;28;46110;-68
2022/08/17 10:36:47;;;;;;;;;25.67;24.00;;;;;21.09;70.44;100582.44;4995637;28;45532;-65
2022/08/17 10:39:57;;;;;;;;;23.67;19.00;;;;;21.38;69.92;100583.81;4995937;28;45472;-64
2022/08/17 10:42:56;;;;;;;;;35.33;29.67;;;;;21.45;69.22;100584.44;4996226;28;45420;-66
2022/08/17 10:45:45;;;;;;;;;29.00;28.67;;;;;21.36;69.78;100588.34;4986842;28;45571;-67
2022/08/17 10:48:29;;;;;;;;;25.00;24.00;;;;;21.45;69.74;100592.44;4996045;28;45321;-67
2022/08/17 10:50:54;;;;;;;;;26.00;23.67;;;;;21.51;69.60;100591.28;4995635;28;45544;-66
2022/08/17 10:53:32;;;;;;;;;27.33;24.33;;;;;21.59;68.93;100595.34;4996348;28;45439;-65
2022/08/17 10:56:13;;;;;;;;;33.67;27.00;;;;;21.68;69.21;100603.84;4995001;28;46363;-67
2022/08/17 10:58:53;;;;;;;;;29.00;28.33;;;;;21.71;68.57;100593.03;4995561;28;45596;-65
2022/08/17 11:01:42;;;;;;;;;27.00;25.00;;;;;21.80;68.58;100604.13;4992329;28;45421;-67
2022/08/17 11:04:17;;;;;;;;;33.33;28.00;;;;;21.83;68.81;100599.56;4975314;28;45488;-66
2022/08/17 11:07:20;;;;;;;;;32.00;30.00;;;;;21.86;68.48;100599.47;4999252;28;45569;-65
2022/08/17 11:10:05;;;;;;;;;36.33;29.00;;;;;21.99;67.66;100590.78;4991946;28;45487;-65
2022/08/17 11:12:47;;;;;;;;;24.67;23.00;;;;;22.11;67.12;100589.31;4988116;28;45767;-64
2022/08/17 11:15:48;;;;;;;;;27.67;26.00;;;;;22.25;66.72;100582.50;4995818;28;45341;-64
2022/08/17 11:18:37;;;;;;;;;26.67;23.67;;;;;22.42;66.59;100569.19;4991043;28;46552;-65
2022/08/17 11:21:37;;;;;;;;;26.00;26.00;;;;;22.74;65.62;100572.03;4970454;28;45403;-64
2022/08/17 11:24:32;;;;;;;;;32.00;29.00;;;;;22.92;65.06;100570.22;4989321;28;45479;-65
2022/08/17 11:27:22;;;;;;;;;33.00;30.33;;;;;23.05;64.89;100571.34;4995219;28;45749;-66
2022/08/17 11:30:28;;;;;;;;;31.33;30.00;;;;;23.02;64.27;100567.03;4995273;28;45699;-65
2022/08/17 11:32:56;;;;;;;;;30.00;28.67;;;;;23.45;63.19;100590.59;4984274;28;45451;-64
2022/08/17 11:35:22;;;;;;;;;33.33;31.33;;;;;24.09;61.52;100596.91;4997635;28;45884;-67
2022/08/17 11:38:07;;;;;;;;;35.67;32.33;;;;;24.47;60.03;100593.88;4995557;28;45496;-67
2022/08/17 11:40:39;;;;;;;;;32.00;30.67;;;;;24.66;59.84;100589.16;4996902;28;45441;-65
2022/08/17 11:43:32;;;;;;;;;32.67;30.00;;;;;24.89;58.84;100593.16;4994829;28;45623;-65
2022/08/17 11:52:42;;;;;;;;;33.33;30.67;;;;;25.16;56.84;100568.31;4984589;28;45838;-65
2022/08/17 11:55:35;;;;;;;;;27.67;26.67;;;;;25.51;56.76;100581.38;4994701;28;45281;-66
2022/08/17 11:58:25;;;;;;;;;32.67;30.33;;;;;25.52;56.39;100589.31;4994845;28;45447;-65
2022/08/17 12:01:32;;;;;;;;;34.33;31.33;;;;;25.29;57.26;100571.13;4994788;28;45396;-65
2022/08/17 12:04:26;;;;;;;;;25.00;24.67;;;;;25.13;57.24;100595.31;4979612;28;47235;-65
2022/08/17 12:07:21;;;;;;;;;29.00;27.67;;;;;24.83;58.30;100582.78;4999487;28;45408;-66
2022/08/17 12:09:49;;;;;;;;;29.00;27.33;;;;;24.81;58.23;100595.41;4987168;28;45554;-65
2022/08/17 12:12:21;;;;;;;;;32.67;30.33;;;;;24.87;57.95;100599.56;4998545;28;45626;-66
2022/08/17 12:14:57;;;;;;;;;30.00;30.00;;;;;24.71;58.49;100594.25;4980882;28;46788;-64